Terminal Aerodrome Forecast
Issued by NWS

Home | Current Version | Previous Version | Text Only | Print | Product List | Glossary On
Versions: 1 2 3 4 5 6 7 8 9 10 11 12 13 14 15 16 17 18 19 20 21
000
FTUS44 KOHX 252300
TAFCKV
TAF
KCKV 252331Z 2600/2624 30005KT P6SM SKC
     FM260400 VRB02KT 5SM BR SCT010
     FM260700 00000KT 3SM BR SCT008
      TEMPO 2609/2613 1SM BR BKN008
     FM261500 VRB03KT P6SM SCT030
     FM261800 14005KT P6SM SKC=

USA.gov is the U.S. government's official web portal to all federal, state and local government web resources and services.